Garvagh, United Kingdom
Current Conditions -  °F | °C
As of 1:20 PM on Monday 22 Dec 2014 (Local Time) from EGAE Reporting Station
Broken Clouds Broken Clouds  
Wind Chill: 50°   Ceiling: 1300
Heat Index: 50°   Visibility: 6mi
Dew Point: 48°   Wind: 16mph
Humidity: 94%   Direction: 240°WSW
Pressure: 29.68"   Gusts: NA
Location:  54.98°N, 6.68°W
Report Text: EGAE 221320Z 24014KT 9999 SCT008 BKN013 10/09 Q1005
Loading
Personal Weather Stations






























Interactive Weather Map New forecast layout! Learn more

10-Day Weather Forecast

Advertisements
Track Severe Weather on mobile